Time;durP1;ratioP1;P1;durP2;ratioP2;P2;SDS_P1;SDS_P2;PMS_P1;PMS_P2;Temp;Humidity;BMP_temperature;BMP_pressure;BME280_temperature;BME280_humidity;BME280_pressure;Samples;Min_cycle;Max_cycle;Signal;HPM_P1;HPM_P2
2022/09/08 00:00:49;;;;;;;4.05;2.45;;;;;;;17.95;71.52;98591.41;5055095;28;20169;-52
2022/09/08 00:03:17;;;;;;;3.13;2.80;;;;;;;17.79;72.57;98539.66;5055690;28;20177;-52
2022/09/08 00:05:55;;;;;;;2.53;2.42;;;;;;;17.97;72.62;98581.59;5037831;28;20532;-52
2022/09/08 00:08:21;;;;;;;2.40;2.20;;;;;;;17.95;72.47;98586.16;5054610;28;20236;-52
2022/09/08 00:10:53;;;;;;;2.35;2.20;;;;;;;17.97;72.03;98581.59;5054536;28;20280;-51
2022/09/08 00:13:20;;;;;;;2.42;2.22;;;;;;;18.08;71.89;98595.28;5054869;28;20169;-52
2022/09/08 00:15:46;;;;;;;2.22;2.13;;;;;;;18.07;71.00;98592.84;5054540;28;20268;-52
2022/09/08 00:18:12;;;;;;;2.55;2.33;;;;;;;18.02;71.67;98597.69;5054734;28;20183;-52
2022/09/08 00:20:38;;;;;;;4.53;2.38;;;;;;;18.00;71.58;98586.50;5054382;28;20256;-52
2022/09/08 00:23:03;;;;;;;4.00;2.70;;;;;;;18.00;72.95;98595.19;5054384;28;20173;-52
2022/09/08 00:25:29;;;;;;;4.35;2.88;;;;;;;17.97;74.84;98599.91;5054370;28;20169;-52
2022/09/08 00:27:54;;;;;;;3.47;2.92;;;;;;;17.83;75.99;98608.28;5054287;28;20618;-52
2022/09/08 00:30:20;;;;;;;6.55;3.58;;;;;;;17.63;77.68;98593.59;5054465;28;20189;-52
2022/09/08 00:32:45;;;;;;;3.83;2.97;;;;;;;17.72;76.35;98601.41;5054204;28;20208;-52
2022/09/08 00:35:14;;;;;;;3.25;2.50;;;;;;;17.70;74.33;98599.91;5054131;28;20200;-52
2022/09/08 00:37:40;;;;;;;3.83;2.58;;;;;;;17.73;74.54;98605.66;5054132;28;20601;-52
2022/09/08 00:40:07;;;;;;;2.78;2.50;;;;;;;17.76;74.37;98608.00;5054156;28;20180;-52
2022/09/08 00:42:32;;;;;;;2.30;2.20;;;;;;;17.69;73.83;98598.25;5054306;28;20697;-52
2022/09/08 00:44:58;;;;;;;2.42;2.22;;;;;;;17.62;74.81;98594.56;5053931;28;20201;-52
2022/09/08 00:47:30;;;;;;;2.60;2.40;;;;;;;17.74;73.63;98590.81;5052916;28;20165;-52
2022/09/08 00:50:26;;;;;;;4.32;2.40;;;;;;;17.81;73.35;98604.94;5053777;28;20251;-52
2022/09/08 00:53:00;;;;;;;2.50;2.40;;;;;;;17.79;72.98;98607.72;5037655;28;20574;-52
2022/09/08 00:55:35;;;;;;;2.88;2.35;;;;;;;17.77;73.31;98608.84;5054068;28;20168;-52
2022/09/08 00:58:01;;;;;;;2.33;2.10;;;;;;;17.70;73.60;98603.34;5053766;28;20153;-52
2022/09/08 01:00:27;;;;;;;2.78;2.45;;;;;;;17.70;75.23;98607.75;5053720;28;20176;-52
2022/09/08 01:02:53;;;;;;;2.95;2.75;;;;;;;17.47;76.61;98609.09;5053899;28;20209;-52
2022/09/08 01:05:27;;;;;;;2.55;2.35;;;;;;;17.39;77.71;98622.06;5053615;28;20222;-52
2022/09/08 01:14:00;;;;;;;4.20;3.00;;;;;;;17.10;81.66;98621.28;5053878;28;20160;-52
2022/09/08 01:16:26;;;;;;;7.75;3.38;;;;;;;17.04;82.59;98625.28;5053428;28;20303;-52
2022/09/08 01:18:56;;;;;;;3.83;3.42;;;;;;;16.68;85.37;98617.31;5053353;28;20689;-52
2022/09/08 01:21:40;;;;;;;4.63;3.88;;;;;;;16.92;84.21;98625.56;5053484;28;20170;-52
2022/09/08 01:24:24;;;;;;;4.13;3.35;;;;;;;16.83;85.43;98627.22;5053476;28;20246;-52
2022/09/08 01:27:37;;;;;;;4.15;3.75;;;;;;;17.07;84.08;98619.75;5053422;28;20537;-52
2022/09/08 01:30:09;;;;;;;3.65;3.28;;;;;;;17.21;83.96;98608.84;5036094;28;20212;-52
2022/09/08 01:32:39;;;;;;;6.20;3.40;;;;;;;17.29;83.73;98614.22;5053068;28;20173;-52
2022/09/08 01:35:06;;;;;;;4.30;3.65;;;;;;;17.28;83.92;98599.50;5052974;28;20200;-52
2022/09/08 01:37:31;;;;;;;4.28;3.50;;;;;;;17.24;84.57;98600.72;5053241;28;20580;-52
2022/09/08 01:39:57;;;;;;;5.03;3.25;;;;;;;17.17;85.32;98604.88;5052976;28;20252;-52
2022/09/08 01:42:23;;;;;;;6.00;3.42;;;;;;;16.96;86.78;98608.66;5052841;28;20181;-53
2022/09/08 01:44:48;;;;;;;3.95;3.22;;;;;;;16.90;88.00;98603.97;5052848;28;20189;-52
2022/09/08 01:47:14;;;;;;;3.00;2.65;;;;;;;17.11;85.92;98600.22;5053018;28;20189;-52
2022/09/08 01:49:39;;;;;;;4.75;3.17;;;;;;;17.05;85.91;98597.34;5052734;28;20200;-53
2022/09/08 01:52:05;;;;;;;3.40;3.10;;;;;;;17.14;84.70;98596.50;5052749;28;20176;-52
2022/09/08 01:54:30;;;;;;;3.30;3.10;;;;;;;17.15;83.83;98592.91;5052739;28;20173;-52
2022/09/08 01:56:56;;;;;;;6.20;3.33;;;;;;;17.05;84.04;98594.72;5052638;28;20261;-52
2022/09/08 01:59:22;;;;;;;3.50;3.20;;;;;;;16.76;84.84;98586.94;5052215;28;20244;-52
2022/09/08 02:01:48;;;;;;;5.03;2.63;;;;;;;16.78;85.91;98599.84;5052787;28;20181;-53
2022/09/08 02:04:13;;;;;;;4.75;3.50;;;;;;;16.35;89.51;98584.56;5052554;28;20184;-53
2022/09/08 02:06:39;;;;;;;3.63;3.33;;;;;;;16.40;89.81;98602.47;5052419;28;20216;-52
2022/09/08 02:09:05;;;;;;;4.43;3.20;;;;;;;16.40;89.53;98582.41;5052293;28;20246;-52
2022/09/08 02:11:30;;;;;;;3.35;3.05;;;;;;;16.56;88.45;98592.31;5052607;28;20177;-52
2022/09/08 02:13:56;;;;;;;4.38;3.35;;;;;;;16.52;89.52;98590.91;5052332;28;20673;-52
2022/09/08 02:16:23;;;;;;;3.13;2.80;;;;;;;16.19;91.68;98578.22;5052824;28;20173;-52
2022/09/08 02:18:48;;;;;;;3.05;2.85;;;;;;;16.33;91.55;98588.28;5052529;28;20188;-52
2022/09/08 02:21:16;;;;;;;4.75;3.97;;;;;;;16.12;92.57;98579.72;5052455;28;20173;-52
2022/09/08 02:23:45;;;;;;;3.33;3.03;;;;;;;16.39;88.21;98572.09;5052189;28;20177;-52
2022/09/08 02:26:18;;;;;;;5.53;2.90;;;;;;;16.42;89.47;98577.03;5052380;28;20204;-52
2022/09/08 02:28:44;;;;;;;4.18;2.92;;;;;;;16.54;85.66;98568.91;5052091;28;20177;-52
2022/09/08 02:31:10;;;;;;;3.03;2.83;;;;;;;16.67;83.83;98563.44;5052241;28;20302;-52
2022/09/08 02:33:36;;;;;;;3.00;2.80;;;;;;;16.79;82.13;98568.34;5052281;28;20697;-52
2022/09/08 02:36:03;;;;;;;3.83;2.50;;;;;;;16.86;81.53;98579.88;5052008;28;20263;-52
2022/09/08 02:38:29;;;;;;;3.08;2.83;;;;;;;16.85;82.45;98585.28;5051974;28;20180;-52
2022/09/08 02:40:55;;;;;;;3.90;3.45;;;;;;;16.89;82.51;98573.56;5051883;28;20177;-52
2022/09/08 02:43:21;;;;;;;2.97;2.65;;;;;;;16.77;83.96;98572.91;5052206;28;20173;-52
2022/09/08 02:45:47;;;;;;;3.10;2.90;;;;;;;16.60;85.82;98575.38;5051829;28;20212;-52
2022/09/08 02:48:13;;;;;;;3.30;3.10;;;;;;;16.47;86.83;98585.28;5051877;28;20227;-52
2022/09/08 02:50:40;;;;;;;4.45;2.90;;;;;;;16.55;85.40;98580.22;5051890;28;20282;-52
2022/09/08 02:53:05;;;;;;;3.78;3.25;;;;;;;16.54;86.60;98568.09;5051976;28;20177;-52
2022/09/08 02:55:31;;;;;;;3.65;2.53;;;;;;;16.41;84.51;98578.81;5051809;28;20204;-52
2022/09/08 02:57:56;;;;;;;2.58;2.40;;;;;;;16.31;83.62;98525.72;5052014;28;20181;-52
2022/09/08 03:00:21;;;;;;;2.42;2.33;;;;;;;16.72;83.16;98550.75;5051762;28;20165;-52
2022/09/08 03:02:47;;;;;;;2.65;2.40;;;;;;;16.73;82.00;98541.97;5051946;28;20187;-52
2022/09/08 03:05:13;;;;;;;2.70;2.50;;;;;;;16.50;83.29;98548.44;5052539;28;20556;-52
2022/09/08 03:07:39;;;;;;;3.05;2.72;;;;;;;16.76;82.38;98562.56;5051436;28;20212;-52
2022/09/08 03:10:06;;;;;;;2.75;2.55;;;;;;;16.66;83.45;98557.34;5052670;28;20274;-52
2022/09/08 03:12:32;;;;;;;2.53;2.35;;;;;;;16.55;84.56;98551.47;5055709;28;20590;-52
2022/09/08 03:14:58;;;;;;;2.65;2.53;;;;;;;16.47;86.49;98561.78;5055644;28;20182;-52
2022/09/08 03:17:23;;;;;;;4.85;2.83;;;;;;;16.30;86.63;98539.75;5055658;28;20169;-52
2022/09/08 03:19:49;;;;;;;2.97;2.78;;;;;;;16.41;87.74;98578.00;5038289;28;20537;-51
2022/09/08 03:22:16;;;;;;;3.78;3.15;;;;;;;16.25;89.41;98581.13;5037915;28;20180;-52
2022/09/08 03:24:42;;;;;;;3.47;3.00;;;;;;;16.37;88.94;98576.56;5055547;28;20201;-52
2022/09/08 03:27:08;;;;;;;3.40;3.10;;;;;;;16.29;88.32;98547.72;5055968;28;20551;-52
2022/09/08 03:29:34;;;;;;;3.78;3.40;;;;;;;16.59;88.54;98600.69;5055301;28;20193;-52
2022/09/08 03:31:59;;;;;;;5.63;2.95;;;;;;;16.21;91.73;98592.78;5055378;28;20181;-52
2022/09/08 03:34:26;;;;;;;9.07;3.50;;;;;;;16.24;92.31;98596.91;5055299;28;20746;-52
2022/09/08 03:36:52;;;;;;;3.50;3.20;;;;;;;15.96;94.37;98592.47;5055202;28;20264;-52
2022/09/08 03:39:17;;;;;;;4.03;3.42;;;;;;;15.71;96.63;98569.47;5055233;28;20178;-52
2022/09/08 03:41:43;;;;;;;5.05;3.28;;;;;;;16.09;94.92;98601.69;5037602;28;20177;-52
2022/09/08 03:44:09;;;;;;;3.65;3.35;;;;;;;16.21;92.95;98603.22;5055117;28;20184;-52
2022/09/08 03:46:35;;;;;;;4.00;3.55;;;;;;;16.33;92.71;98596.09;5055101;28;20214;-52
2022/09/08 03:49:00;;;;;;;4.35;3.35;;;;;;;16.38;92.02;98594.75;5054988;28;20259;-52
2022/09/08 03:51:26;;;;;;;3.95;3.60;;;;;;;16.45;89.28;98600.28;5055402;28;20319;-51
2022/09/08 03:54:46;;;;;;;6.13;2.88;;;;;;;16.41;86.14;98580.59;5054908;28;20553;-52
2022/09/08 03:56:39;;;;;;;3.90;3.05;;;;;;;16.67;84.82;98605.22;5055151;28;20244;-52
2022/09/08 03:59:04;;;;;;;7.30;3.72;;;;;;;16.74;85.84;98601.09;5037230;28;20853;-52
2022/09/08 04:01:30;;;;;;;4.10;3.80;;;;;;;16.82;84.67;98583.75;5036901;28;20177;-52
2022/09/08 04:03:55;;;;;;;3.35;2.78;;;;;;;17.00;81.89;98595.16;5055189;28;20204;-51
2022/09/08 04:06:21;;;;;;;3.33;2.65;;;;;;;16.95;80.46;98599.13;5054573;28;20192;-52
2022/09/08 04:08:46;;;;;;;5.63;2.67;;;;;;;16.83;81.13;98595.03;5054687;28;20158;-52
2022/09/08 04:11:11;;;;;;;2.85;2.65;;;;;;;16.79;80.85;98583.22;5054520;28;20210;-52
2022/09/08 04:13:37;;;;;;;3.60;3.30;;;;;;;16.80;83.16;98593.50;5054572;28;20558;-52
2022/09/08 04:16:03;;;;;;;4.60;2.60;;;;;;;16.79;81.46;98594.47;5054465;28;20187;-52
2022/09/08 04:18:29;;;;;;;2.70;2.50;;;;;;;16.65;82.73;98601.91;5054797;28;20173;-52
2022/09/08 04:20:59;;;;;;;4.25;3.20;;;;;;;16.76;82.53;98609.63;5054149;28;20222;-52
2022/09/08 04:23:26;;;;;;;3.08;2.78;;;;;;;16.67;83.07;98615.69;5054382;28;20185;-52
2022/09/08 04:26:00;;;;;;;3.88;3.10;;;;;;;16.80;82.29;98622.25;5054699;28;20626;-52
2022/09/08 04:28:26;;;;;;;3.35;2.83;;;;;;;16.97;82.23;98626.78;5054611;28;20169;-52
2022/09/08 04:30:52;;;;;;;3.42;2.88;;;;;;;17.00;80.70;98616.06;5054190;28;20682;-52
2022/09/08 04:33:17;;;;;;;2.97;2.78;;;;;;;17.08;79.31;98615.38;5054114;28;20181;-52
2022/09/08 04:35:43;;;;;;;2.65;2.45;;;;;;;16.99;79.15;98603.13;5054455;28;20188;-51
2022/09/08 04:38:08;;;;;;;2.53;2.33;;;;;;;17.11;79.12;98610.69;5036181;28;20200;-52
2022/09/08 04:40:34;;;;;;;3.17;2.60;;;;;;;17.06;79.28;98612.88;5054111;28;20169;-52
2022/09/08 04:43:00;;;;;;;5.95;2.45;;;;;;;16.94;79.05;98598.31;5054277;28;20224;-52
2022/09/08 04:45:25;;;;;;;2.58;2.47;;;;;;;17.05;79.37;98613.03;5054229;28;20184;-51
2022/09/08 04:47:51;;;;;;;2.53;2.33;;;;;;;17.04;79.19;98622.66;5054209;28;20165;-52
2022/09/08 04:50:16;;;;;;;2.90;2.70;;;;;;;16.95;79.26;98617.44;5054095;28;20255;-52
2022/09/08 04:52:41;;;;;;;3.58;2.70;;;;;;;17.01;78.88;98619.47;5053904;28;20235;-52
2022/09/08 04:55:07;;;;;;;4.93;2.90;;;;;;;16.98;78.62;98614.53;5053839;28;20165;-52
2022/09/08 04:57:34;;;;;;;4.15;2.60;;;;;;;17.04;79.31;98620.06;5036139;28;20173;-52
2022/09/08 05:00:01;;;;;;;2.63;2.35;;;;;;;17.06;78.94;98622.50;5053758;28;20170;-53
2022/09/08 05:02:28;;;;;;;4.05;2.83;;;;;;;17.13;78.71;98626.22;5053701;28;20561;-52
2022/09/08 05:04:54;;;;;;;3.08;2.70;;;;;;;17.13;78.56;98627.03;5053640;28;20177;-52
2022/09/08 05:07:19;;;;;;;8.75;2.40;;;;;;;17.22;78.46;98638.44;5053569;28;20229;-53
2022/09/08 05:09:44;;;;;;;2.75;2.55;;;;;;;17.33;78.44;98633.06;5053454;28;20197;-53
2022/09/08 05:12:10;;;;;;;3.33;2.65;;;;;;;17.40;77.60;98645.47;5053365;28;20175;-52
2022/09/08 05:14:35;;;;;;;5.15;2.42;;;;;;;17.49;77.86;98641.19;5053403;28;20173;-53
2022/09/08 05:17:01;;;;;;;4.80;2.65;;;;;;;17.55;78.25;98640.63;5053645;28;20256;-52
2022/09/08 05:19:26;;;;;;;3.55;2.35;;;;;;;17.71;76.91;98646.03;5053370;28;20538;-51
2022/09/08 05:21:52;;;;;;;12.13;3.28;;;;;;;17.73;77.13;98638.88;5053514;28;20323;-52
2022/09/08 05:24:17;;;;;;;3.53;2.35;;;;;;;17.85;76.99;98648.22;5053258;28;20169;-52
2022/09/08 05:26:42;;;;;;;2.80;2.60;;;;;;;17.91;76.30;98648.47;5053454;28;20172;-52
2022/09/08 05:29:08;;;;;;;4.35;2.83;;;;;;;17.95;76.75;98638.53;5053064;28;20192;-52
2022/09/08 05:31:33;;;;;;;3.80;2.38;;;;;;;18.10;74.64;98637.88;5053378;28;20227;-52
2022/09/08 05:33:59;;;;;;;4.82;2.60;;;;;;;18.15;73.69;98627.81;5052347;28;20649;-52
2022/09/08 05:36:27;;;;;;;2.60;2.40;;;;;;;18.33;72.37;98623.44;5053101;28;20180;-52
2022/09/08 05:38:54;;;;;;;3.42;3.15;;;;;;;18.22;72.38;98593.97;5053247;28;20319;-52
2022/09/08 05:41:21;;;;;;;3.35;2.92;;;;;;;18.47;71.98;98624.72;5052929;28;20176;-52
2022/09/08 05:43:46;;;;;;;3.20;3.00;;;;;;;18.46;72.64;98626.50;5052891;28;20203;-52
2022/09/08 05:46:12;;;;;;;3.20;2.70;;;;;;;18.44;72.48;98622.41;5052785;28;20173;-52
2022/09/08 05:48:38;;;;;;;4.97;3.50;;;;;;;18.46;72.80;98623.91;5053072;28;20175;-52
2022/09/08 05:51:09;;;;;;;4.07;2.90;;;;;;;18.44;73.22;98627.63;5052328;28;20617;-52
2022/09/08 05:53:34;;;;;;;4.50;3.00;;;;;;;18.46;73.09;98631.75;5052523;28;20161;-52
2022/09/08 05:56:02;;;;;;;3.30;3.00;;;;;;;18.57;72.98;98636.78;5052686;28;20247;-53
2022/09/08 05:58:29;;;;;;;3.22;2.92;;;;;;;18.70;72.78;98629.34;5052423;28;20200;-53
2022/09/08 06:00:59;;;;;;;3.17;2.97;;;;;;;18.77;72.07;98640.09;5052910;28;20173;-53
2022/09/08 06:03:26;;;;;;;4.18;3.13;;;;;;;18.92;72.05;98635.94;5052497;28;20192;-53
2022/09/08 06:05:52;;;;;;;5.00;2.80;;;;;;;19.08;72.30;98625.56;5052782;28;20212;-53
2022/09/08 06:08:21;;;;;;;3.90;2.80;;;;;;;19.31;71.41;98632.00;5052356;28;20204;-53
2022/09/08 06:10:55;;;;;;;2.80;2.60;;;;;;;19.43;69.65;98634.22;5052817;28;20235;-52
2022/09/08 06:13:21;;;;;;;2.90;2.63;;;;;;;19.53;67.60;98626.25;5052663;28;20164;-53
2022/09/08 06:15:48;;;;;;;2.88;2.67;;;;;;;19.62;67.89;98627.91;5050686;28;20169;-52
2022/09/08 06:18:14;;;;;;;2.55;2.38;;;;;;;19.67;67.06;98638.78;5050825;28;20255;-53
2022/09/08 06:20:39;;;;;;;3.65;2.33;;;;;;;19.72;66.63;98637.34;5052262;28;20621;-52
2022/09/08 06:23:05;;;;;;;3.00;2.50;;;;;;;19.73;66.87;98632.91;5052270;28;20223;-53
2022/09/08 06:25:30;;;;;;;4.28;2.30;;;;;;;19.80;65.05;98631.28;5034357;28;20680;-52
2022/09/08 06:28:36;;;;;;;3.15;2.10;;;;;;;19.88;66.30;98632.16;5052146;28;20169;-53
2022/09/08 06:31:07;;;;;;;2.45;2.33;;;;;;;20.08;65.03;98643.28;5040613;28;20255;-53
2022/09/08 06:33:40;;;;;;;2.92;2.28;;;;;;;20.22;65.60;98640.06;5052343;28;20169;-53
2022/09/08 06:36:27;;;;;;;3.15;2.42;;;;;;;20.33;65.92;98635.31;5052208;28;20161;-53
2022/09/08 06:39:13;;;;;;;4.78;2.40;;;;;;;20.56;65.76;98643.41;5052123;28;20547;-53
2022/09/08 06:41:47;;;;;;;2.92;2.70;;;;;;;20.49;64.27;98637.16;5052021;28;20165;-54
2022/09/08 06:44:27;;;;;;;6.47;3.72;;;;;;;20.54;64.33;98634.84;5052024;28;20168;-53
2022/09/08 06:46:55;;;;;;;6.63;3.78;;;;;;;20.77;63.56;98636.72;5051923;28;20236;-53
2022/09/08 06:49:25;;;;;;;7.90;3.97;;;;;;;20.98;62.68;98646.78;5051807;28;20197;-53
2022/09/08 06:51:51;;;;;;;9.65;3.50;;;;;;;21.06;62.79;98646.78;5051762;28;20173;-53
2022/09/08 06:54:35;;;;;;;4.00;2.67;;;;;;;21.01;61.64;98649.91;5051831;28;20600;-52
2022/09/08 06:57:22;;;;;;;5.40;3.20;;;;;;;21.14;62.89;98654.66;5052268;28;20150;-52
2022/09/08 07:00:08;;;;;;;5.88;3.83;;;;;;;21.32;62.60;98655.34;5052023;28;20176;-53
2022/09/08 07:02:46;;;;;;;4.22;3.42;;;;;;;21.42;62.86;98663.84;5051176;28;20200;-53
2022/09/08 07:05:37;;;;;;;5.70;3.03;;;;;;;21.46;60.50;98663.38;5050507;28;20165;-53
2022/09/08 07:08:12;;;;;;;3.08;2.88;;;;;;;21.56;60.39;98660.56;5051497;28;20208;-52
2022/09/08 07:10:50;;;;;;;6.95;3.75;;;;;;;21.66;61.28;98655.91;5051656;28;20246;-52
2022/09/08 07:13:26;;;;;;;7.82;4.53;;;;;;;21.74;61.12;98653.31;5052257;28;20193;-53
2022/09/08 07:16:11;;;;;;;10.32;4.70;;;;;;;21.84;61.24;98648.63;5052183;28;20646;-53
2022/09/08 07:18:50;;;;;;;9.90;5.53;;;;;;;21.95;60.52;98651.75;5051978;28;20165;-53
2022/09/08 07:21:27;;;;;;;7.35;4.50;;;;;;;22.07;60.47;98653.00;5051845;28;20646;-53
2022/09/08 07:23:58;;;;;;;7.65;4.38;;;;;;;22.20;59.86;98653.28;5051840;28;20169;-53
2022/09/08 07:26:37;;;;;;;8.50;4.35;;;;;;;22.32;59.28;98648.47;5052078;28;20169;-53
2022/09/08 07:29:10;;;;;;;5.95;4.10;;;;;;;22.45;57.81;98659.28;5051767;28;20205;-53
2022/09/08 07:31:40;;;;;;;10.43;4.00;;;;;;;22.43;58.11;98662.09;5051741;28;20165;-53
2022/09/08 07:34:13;;;;;;;9.60;5.07;;;;;;;22.39;58.28;98665.22;5051655;28;20200;-53
2022/09/08 07:37:00;;;;;;;5.20;3.88;;;;;;;22.45;58.30;98659.28;5051710;28;20161;-53
2022/09/08 07:39:40;;;;;;;5.03;3.75;;;;;;;22.44;58.47;98661.09;5051466;28;20204;-53
2022/09/08 07:42:13;;;;;;;6.95;3.88;;;;;;;22.53;57.17;98662.69;5051679;28;20630;-53
2022/09/08 07:44:39;;;;;;;7.72;3.88;;;;;;;22.60;57.33;98668.13;5051469;28;20161;-53
2022/09/08 07:47:17;;;;;;;6.05;4.72;;;;;;;22.63;57.52;98660.69;5051443;28;20177;-53
2022/09/08 07:49:59;;;;;;;12.40;4.75;;;;;;;22.45;57.73;98664.56;5051281;28;20576;-53
2022/09/08 07:52:51;;;;;;;7.60;3.92;;;;;;;22.35;57.85;98664.75;5051374;28;20244;-54
2022/09/08 07:55:26;;;;;;;7.45;3.72;;;;;;;22.37;58.55;98662.75;5051326;28;20166;-53
2022/09/08 07:58:19;;;;;;;10.48;4.03;;;;;;;22.51;58.75;98661.22;5055335;28;20626;-53
2022/09/08 08:00:56;;;;;;;8.15;3.88;;;;;;;22.72;59.41;98661.44;5055210;28;20244;-53
2022/09/08 08:03:33;;;;;;;8.43;3.85;;;;;;;22.87;58.85;98664.94;5054834;28;20226;-53
2022/09/08 08:06:13;;;;;;;9.65;3.83;;;;;;;23.10;56.92;98676.31;5054900;28;20193;-53
2022/09/08 08:09:06;;;;;;;7.70;3.78;;;;;;;23.20;55.63;98684.88;5054681;28;20204;-51
2022/09/08 08:11:41;;;;;;;9.85;3.83;;;;;;;23.20;56.45;98676.94;5054644;28;20169;-51
2022/09/08 08:14:26;;;;;;;12.10;4.13;;;;;;;23.30;56.05;98680.97;5054920;28;20210;-51
2022/09/08 08:17:09;;;;;;;12.02;4.50;;;;;;;23.41;55.68;98685.00;5054564;28;20618;-54
2022/09/08 08:20:00;;;;;;;9.93;4.95;;;;;;;23.31;56.15;98685.25;5054746;28;20658;-51
2022/09/08 08:22:47;;;;;;;8.45;4.43;;;;;;;23.37;57.10;98683.75;5054379;28;20658;-51
2022/09/08 08:25:24;;;;;;;6.15;4.00;;;;;;;23.38;55.15;98674.81;5055048;28;20173;-51
2022/09/08 08:28:12;;;;;;;6.45;3.78;;;;;;;23.08;56.10;98668.56;5054423;28;20644;-53
2022/09/08 08:30:47;;;;;;;10.88;4.00;;;;;;;23.28;56.88;98674.22;5054490;28;20696;-51
2022/09/08 08:33:27;;;;;;;8.68;4.22;;;;;;;23.35;55.43;98685.72;5054589;28;20160;-52
2022/09/08 08:36:03;;;;;;;8.82;3.92;;;;;;;23.44;54.87;98677.56;5054430;28;20165;-52
2022/09/08 08:38:35;;;;;;;8.88;3.95;;;;;;;23.46;54.60;98666.78;5054559;28;20274;-51
2022/09/08 08:41:06;;;;;;;6.95;3.85;;;;;;;23.64;53.11;98660.19;5053952;28;20197;-51
2022/09/08 08:43:49;;;;;;;8.27;4.13;;;;;;;23.53;54.09;98659.81;5054024;28;20172;-52
2022/09/08 08:46:24;;;;;;;5.55;3.72;;;;;;;23.57;54.49;98653.97;5054231;28;20203;-52
2022/09/08 08:49:01;;;;;;;7.68;4.38;;;;;;;23.40;54.81;98649.84;5054271;28;20178;-52
2022/09/08 08:51:57;;;;;;;11.50;4.50;;;;;;;23.27;55.03;98648.81;5054263;28;20563;-51
2022/09/08 08:54:48;;;;;;;8.38;4.18;;;;;;;23.14;54.63;98640.66;5025740;28;20181;-51
2022/09/08 08:57:23;;;;;;;7.30;3.80;;;;;;;22.99;56.62;98645.06;5054010;28;20219;-52
2022/09/08 09:00:03;;;;;;;9.38;3.97;;;;;;;23.16;55.51;98638.66;5053817;28;20152;-52
2022/09/08 09:03:06;;;;;;;6.40;4.20;;;;;;;23.25;55.61;98637.63;5053708;28;20562;-52
2022/09/08 09:05:49;;;;;;;14.10;4.20;;;;;;;23.20;55.63;98632.06;5053951;28;20165;-52
2022/09/08 09:08:20;;;;;;;10.10;4.35;;;;;;;23.38;56.02;98627.25;5052418;28;20263;-52
2022/09/08 09:11:07;;;;;;;12.52;4.25;;;;;;;23.41;55.93;98618.97;5053751;28;20207;-52
2022/09/08 09:13:42;;;;;;;7.60;3.70;;;;;;;23.66;54.93;98617.72;5053530;28;20244;-52
2022/09/08 09:16:35;;;;;;;4.47;3.80;;;;;;;23.82;54.98;98618.34;5053513;28;20200;-52
2022/09/08 09:19:09;;;;;;;6.68;4.32;;;;;;;24.01;53.66;98614.38;5053716;28;20177;-52
2022/09/08 09:21:51;;;;;;;9.07;4.00;;;;;;;24.10;53.44;98614.88;5053328;28;20668;-52
2022/09/08 09:24:35;;;;;;;7.80;3.92;;;;;;;24.25;53.74;98609.56;5053588;28;20330;-53
2022/09/08 09:27:06;;;;;;;5.75;3.90;;;;;;;24.18;53.33;98577.78;5053356;28;20230;-52
2022/09/08 09:29:37;;;;;;;7.97;3.85;;;;;;;24.39;53.24;98606.88;5053431;28;20197;-52
2022/09/08 09:32:26;;;;;;;9.95;4.28;;;;;;;24.41;52.35;98612.81;5053343;28;20157;-53
2022/09/08 09:35:33;;;;;;;4.20;3.80;;;;;;;24.13;53.02;98609.25;5053413;28;20158;-52
2022/09/08 09:37:59;;;;;;;9.23;3.90;;;;;;;24.25;53.36;98607.75;5042762;28;20193;-52
2022/09/08 09:40:46;;;;;;;7.47;3.92;;;;;;;23.98;54.23;98566.13;5053229;28;20220;-52
2022/09/08 09:43:18;;;;;;;6.28;3.92;;;;;;;24.32;54.19;98598.06;5052970;28;20256;-52
2022/09/08 09:46:08;;;;;;;6.32;4.13;;;;;;;24.46;53.69;98599.84;5053281;28;20177;-52
2022/09/08 09:48:56;;;;;;;8.05;3.60;;;;;;;24.40;53.23;98590.03;5052982;28;20525;-52
2022/09/08 09:51:52;;;;;;;5.82;4.07;;;;;;;24.62;53.35;98583.75;5040453;28;20358;-52
2022/09/08 09:54:20;;;;;;;7.30;4.07;;;;;;;24.77;53.26;98584.50;5053327;28;20165;-52
2022/09/08 09:56:55;;;;;;;5.35;4.00;;;;;;;24.87;52.70;98582.38;5052712;28;20196;-52
2022/09/08 09:59:48;;;;;;;7.10;4.10;;;;;;;24.98;53.04;98578.38;5052580;28;20566;-52
2022/09/08 10:02:32;;;;;;;5.10;3.53;;;;;;;25.16;51.37;98581.38;5052878;28;20169;-52
2022/09/08 10:05:35;;;;;;;5.40;3.70;;;;;;;25.30;51.44;98578.66;5052772;28;20162;-52
2022/09/08 10:08:27;;;;;;;10.70;6.80;;;;;;;25.41;51.37;98575.47;5052401;28;20204;-52
2022/09/08 10:11:01;;;;;;;8.95;4.03;;;;;;;25.55;50.00;98569.22;5052499;28;20187;-54
2022/09/08 10:14:20;;;;;;;7.57;4.32;;;;;;;25.69;50.34;98570.94;5052436;28;20156;-53
2022/09/08 10:16:47;;;;;;;10.05;6.82;;;;;;;25.86;49.44;98574.06;4971583;28;20190;-51
2022/09/08 10:19:30;;;;;;;6.53;5.10;;;;;;;25.93;48.41;98573.13;5035541;28;20690;-52
2022/09/08 10:22:04;;;;;;;20.30;9.13;;;;;;;26.02;49.71;98571.91;5052260;28;20235;-51
2022/09/08 10:24:51;;;;;;;8.85;5.60;;;;;;;26.13;48.92;98571.34;5052350;28;20552;-52
2022/09/08 10:27:28;;;;;;;8.07;4.72;;;;;;;26.15;48.67;98561.38;5052771;28;20169;-52
2022/09/08 10:29:56;;;;;;;6.22;4.22;;;;;;;26.22;48.12;98553.44;5052330;28;20197;-52
2022/09/08 10:32:49;;;;;;;8.57;3.92;;;;;;;26.26;48.65;98555.50;5052070;28;20177;-52
2022/09/08 10:35:15;;;;;;;5.40;3.78;;;;;;;26.40;48.93;98546.53;5052017;28;20171;-52
2022/09/08 10:37:52;;;;;;;5.00;4.20;;;;;;;26.54;49.15;98550.06;5052274;28;20185;-52
2022/09/08 10:40:51;;;;;;;5.13;3.75;;;;;;;26.75;47.29;98542.72;5052280;28;20653;-52
2022/09/08 10:43:32;;;;;;;5.22;3.92;;;;;;;27.03;47.03;98540.69;5052089;28;20557;-52
2022/09/08 10:46:15;;;;;;;4.80;3.40;;;;;;;27.19;46.66;98542.13;5052020;28;20232;-52
2022/09/08 10:49:02;;;;;;;6.75;3.60;;;;;;;27.16;46.80;98537.22;5051989;28;20634;-52
2022/09/08 10:51:36;;;;;;;4.38;3.97;;;;;;;27.38;45.91;98536.78;5052354;28;20192;-52
2022/09/08 10:54:34;;;;;;;5.18;3.60;;;;;;;27.43;45.84;98534.31;5051823;28;20259;-52
2022/09/08 10:57:19;;;;;;;6.82;3.47;;;;;;;27.59;45.49;98523.22;5052080;28;20540;-52
2022/09/08 11:00:09;;;;;;;3.97;3.67;;;;;;;27.62;46.21;98519.31;5051735;28;20598;-53
2022/09/08 11:03:09;;;;;;;5.70;3.97;;;;;;;27.74;44.95;98531.75;5052054;28;20169;-52
2022/09/08 11:05:41;;;;;;;4.28;3.63;;;;;;;27.71;45.60;98516.25;5026054;28;20185;-52
2022/09/08 11:08:13;;;;;;;6.43;3.60;;;;;;;27.82;45.12;98517.44;5051623;28;20216;-54
2022/09/08 11:11:09;;;;;;;4.95;3.67;;;;;;;27.93;44.93;98509.59;5051740;28;20209;-53
2022/09/08 11:13:42;;;;;;;6.13;3.70;;;;;;;27.98;45.03;98504.47;5052509;28;20264;-53
2022/09/08 11:16:19;;;;;;;4.88;4.00;;;;;;;28.14;44.10;98506.63;5051662;28;20244;-53
2022/09/08 11:19:03;;;;;;;8.48;4.47;;;;;;;28.16;43.31;98499.25;5051880;28;20172;-53
2022/09/08 11:21:47;;;;;;;4.78;3.83;;;;;;;28.26;43.18;98499.59;5051884;28;20254;-53
2022/09/08 11:24:38;;;;;;;4.40;4.00;;;;;;;28.08;44.02;98486.19;5051551;28;20630;-53
2022/09/08 11:27:06;;;;;;;4.35;3.60;;;;;;;28.24;44.03;98488.38;5051805;28;20252;-53
2022/09/08 11:29:36;;;;;;;4.22;3.75;;;;;;;28.50;43.38;98484.75;5051471;28;20197;-53
2022/09/08 11:32:21;;;;;;;4.25;3.95;;;;;;;28.50;43.23;98471.44;5054652;28;20169;-53
2022/09/08 11:34:49;;;;;;;4.40;3.97;;;;;;;28.69;42.79;98486.41;5055595;28;20165;-53
2022/09/08 11:37:26;;;;;;;4.10;3.60;;;;;;;28.78;42.87;98472.59;5055356;28;20177;-53
2022/09/08 11:39:51;;;;;;;7.25;3.70;;;;;;;28.93;42.74;98470.41;5055697;28;20154;-53
2022/09/08 11:42:41;;;;;;;5.25;3.63;;;;;;;29.14;40.97;98471.91;5055239;28;20169;-53
2022/09/08 11:45:06;;;;;;;6.30;3.72;;;;;;;29.20;42.00;98461.13;5055278;28;20257;-53
2022/09/08 11:47:57;;;;;;;10.35;3.90;;;;;;;29.32;41.54;98470.03;5055147;28;20251;-53
2022/09/08 11:50:43;;;;;;;3.83;3.20;;;;;;;28.80;41.24;98453.75;5055111;28;20200;-53
2022/09/08 11:53:30;;;;;;;4.20;3.40;;;;;;;28.84;41.67;98457.59;5055284;28;20166;-53
2022/09/08 11:56:17;;;;;;;5.95;3.60;;;;;;;29.13;42.36;98455.06;5055098;28;20200;-53
2022/09/08 11:58:51;;;;;;;5.53;3.28;;;;;;;29.41;40.93;98450.03;5055227;28;20177;-53
2022/09/08 12:01:23;;;;;;;8.80;3.28;;;;;;;29.66;40.89;98453.44;5054869;28;20234;-53
2022/09/08 12:03:51;;;;;;;5.70;3.35;;;;;;;29.86;39.11;98450.53;5054822;28;20230;-53
2022/09/08 12:06:25;;;;;;;6.10;3.55;;;;;;;29.94;39.97;98450.19;5054668;28;20188;-53
2022/09/08 12:09:00;;;;;;;3.35;2.88;;;;;;;29.87;38.89;98436.97;5054954;28;20191;-53